createdAt,value
2019-05-16T00:02:08.417Z,9.40
2019-05-16T00:04:38.294Z,9.23
2019-05-16T00:07:08.043Z,9.33
2019-05-16T00:09:38.288Z,8.93
2019-05-16T00:12:08.762Z,8.77
2019-05-16T00:14:38.796Z,8.43
2019-05-16T00:17:08.561Z,9.43
2019-05-16T00:19:38.216Z,8.60
2019-05-16T00:22:08.684Z,8.30
2019-05-16T00:24:38.805Z,8.37
2019-05-16T00:27:08.465Z,8.30
2019-05-16T00:29:38.471Z,8.37
2019-05-16T00:32:08.697Z,8.67
2019-05-16T00:34:39.630Z,8.27
2019-05-16T00:37:08.969Z,7.93
2019-05-16T00:39:38.789Z,8.60
2019-05-16T00:42:08.998Z,8.67
2019-05-16T00:44:38.872Z,8.97
2019-05-16T00:47:08.669Z,8.40
2019-05-16T00:49:38.830Z,8.37
2019-05-16T00:52:08.140Z,9.37
2019-05-16T00:54:38.406Z,9.33
2019-05-16T00:57:08.985Z,9.53
2019-05-16T00:59:40.309Z,9.27
2019-05-16T01:02:09.649Z,10.73
2019-05-16T01:04:38.983Z,12.63
2019-05-16T01:07:08.383Z,10.80
2019-05-16T01:09:38.543Z,10.97
2019-05-16T01:12:08.600Z,10.93
2019-05-16T01:14:38.449Z,11.53
2019-05-16T01:17:08.745Z,10.80
2019-05-16T01:19:38.598Z,11.63
2019-05-16T01:22:08.391Z,11.83
2019-05-16T01:24:38.584Z,11.30
2019-05-16T01:27:08.864Z,12.40
2019-05-16T01:29:38.517Z,12.17
2019-05-16T01:32:29.133Z,12.47
2019-05-16T01:34:58.896Z,12.80
2019-05-16T01:37:28.917Z,12.03
2019-05-16T01:39:58.820Z,12.60
2019-05-16T01:42:28.694Z,12.57
2019-05-16T01:44:58.042Z,12.93
2019-05-16T01:47:28.833Z,12.60
2019-05-16T01:49:58.373Z,12.53
2019-05-16T01:52:29.184Z,13.20
2019-05-16T01:54:59.109Z,12.83
2019-05-16T01:57:28.486Z,12.47
2019-05-16T01:59:58.938Z,12.80
2019-05-16T02:02:29.097Z,12.33
2019-05-16T02:04:59.048Z,11.23
2019-05-16T02:07:29.133Z,10.93
2019-05-16T02:09:58.474Z,11.10
2019-05-16T02:12:27.872Z,11.07
2019-05-16T02:14:58.725Z,11.00
2019-05-16T02:17:29.019Z,10.63
2019-05-16T02:19:59.095Z,11.80
2019-05-16T02:22:28.588Z,10.97
2019-05-16T02:24:58.645Z,10.80
2019-05-16T02:27:28.686Z,10.87
2019-05-16T02:29:59.971Z,10.87
2019-05-16T02:32:31.377Z,10.80
2019-05-16T02:35:01.409Z,10.53
2019-05-16T02:37:34.889Z,10.23
2019-05-16T02:40:02.401Z,11.73
2019-05-16T02:42:31.791Z,11.50
2019-05-16T02:45:02.382Z,11.67
2019-05-16T02:47:35.105Z,12.40
2019-05-16T02:50:03.323Z,13.20
2019-05-16T02:52:32.614Z,15.30
2019-05-16T02:55:01.985Z,15.77
2019-05-16T02:57:31.809Z,13.57
2019-05-16T03:00:02.352Z,12.43
2019-05-16T03:02:32.406Z,13.33
2019-05-16T03:05:01.820Z,12.50
2019-05-16T03:07:41.532Z,12.00
2019-05-16T03:10:05.642Z,12.57
2019-05-16T03:12:36.464Z,12.43
2019-05-16T03:15:06.650Z,12.77
2019-05-16T03:17:36.139Z,13.47
2019-05-16T03:20:06.788Z,13.83
2019-05-16T03:22:37.240Z,13.83
2019-05-16T03:25:07.131Z,13.90
2019-05-16T03:27:36.480Z,14.47
2019-05-16T03:30:06.855Z,14.67
2019-05-16T03:32:36.204Z,15.30
2019-05-16T03:35:07.330Z,15.43
2019-05-16T03:37:54.437Z,15.23
2019-05-16T03:40:10.858Z,14.93
2019-05-16T03:42:41.581Z,14.30
2019-05-16T03:45:10.789Z,14.17
2019-05-16T03:47:42.722Z,13.17
2019-05-16T03:50:12.371Z,13.63
2019-05-16T03:52:43.638Z,14.53
2019-05-16T03:55:12.765Z,13.67
2019-05-16T03:57:42.109Z,13.10
2019-05-16T04:00:13.005Z,13.07
2019-05-16T04:02:45.630Z,13.67
2019-05-16T04:05:14.306Z,13.17
2019-05-16T04:07:43.601Z,12.90
2019-05-16T04:10:13.828Z,14.10
2019-05-16T04:12:43.173Z,14.27
2019-05-16T04:15:12.925Z,13.70
2019-05-16T04:17:42.285Z,12.50
2019-05-16T04:20:12.164Z,14.70
2019-05-16T04:22:41.569Z,12.80
2019-05-16T04:25:11.492Z,13.80
2019-05-16T04:27:41.961Z,14.00
2019-05-16T04:30:12.346Z,14.23
2019-05-16T04:32:42.471Z,13.43
2019-05-16T04:35:12.194Z,14.97
2019-05-16T04:37:42.526Z,13.10
2019-05-16T04:40:13.412Z,14.17
2019-05-16T04:42:42.754Z,13.97
2019-05-16T04:45:12.802Z,14.47
2019-05-16T04:47:42.130Z,13.70
2019-05-16T04:50:12.411Z,13.33
2019-05-16T04:52:42.217Z,15.27
2019-05-16T04:55:12.773Z,13.73
2019-05-16T04:57:42.606Z,13.67
2019-05-16T05:00:13.535Z,14.60
2019-05-16T05:02:42.935Z,15.03
2019-05-16T05:05:13.151Z,13.03
2019-05-16T05:07:42.573Z,14.97
2019-05-16T05:10:12.850Z,15.50
2019-05-16T05:12:42.260Z,14.40
2019-05-16T05:15:13.514Z,14.63
2019-05-16T05:17:42.849Z,13.57
2019-05-16T05:20:13.613Z,14.10
2019-05-16T05:22:42.953Z,14.23
2019-05-16T05:25:12.525Z,14.83
2019-05-16T05:27:41.873Z,14.97
2019-05-16T05:30:11.755Z,14.43
2019-05-16T05:32:41.507Z,15.77
2019-05-16T05:35:11.901Z,15.10
2019-05-16T05:37:41.301Z,15.60
2019-05-16T05:40:14.650Z,14.77
2019-05-16T05:42:44.030Z,14.70
2019-05-16T05:45:14.947Z,13.93
2019-05-16T05:47:44.241Z,15.70
2019-05-16T05:50:14.377Z,14.77
2019-05-16T05:52:46.126Z,16.23
2019-05-16T05:55:14.758Z,20.87
2019-05-16T05:57:44.158Z,17.80
2019-05-16T06:00:14.981Z,26.17
2019-05-16T06:02:44.358Z,29.83
2019-05-16T06:05:14.122Z,31.07
2019-05-16T06:07:44.493Z,23.70
2019-05-16T06:10:14.397Z,25.50
2019-05-16T06:12:43.712Z,25.73
2019-05-16T06:15:13.570Z,24.00
2019-05-16T06:17:42.940Z,22.63
2019-05-16T06:20:14.585Z,18.27
2019-05-16T06:22:44.089Z,16.80
2019-05-16T06:25:14.036Z,17.90
2019-05-16T06:27:44.165Z,19.10
2019-05-16T06:30:15.010Z,14.57
2019-05-16T06:32:44.369Z,16.80
2019-05-16T06:35:14.016Z,15.27
2019-05-16T06:37:43.396Z,14.57
2019-05-16T06:40:12.833Z,14.63
2019-05-16T06:42:42.224Z,15.67
2019-05-16T06:45:12.450Z,14.97
2019-05-16T06:47:41.809Z,16.03
2019-05-16T06:50:12.467Z,15.20
2019-05-16T06:52:41.837Z,15.47
2019-05-16T06:55:12.003Z,16.93
2019-05-16T06:57:41.279Z,15.37
2019-05-16T07:00:11.758Z,16.43
2019-05-16T07:02:41.124Z,16.23
2019-05-16T07:05:11.435Z,16.67
2019-05-16T07:07:40.723Z,14.97
2019-05-16T07:10:10.846Z,15.70
2019-05-16T07:12:41.323Z,15.63
2019-05-16T07:15:13.193Z,15.23
2019-05-16T07:17:42.549Z,14.80
2019-05-16T07:20:13.037Z,14.83
2019-05-16T07:22:42.372Z,15.03
2019-05-16T07:25:12.453Z,15.03
2019-05-16T07:27:41.741Z,14.50
2019-05-16T07:30:12.190Z,16.53
2019-05-16T07:32:41.670Z,15.00
2019-05-16T07:35:11.168Z,15.43
2019-05-16T07:37:40.584Z,14.07
2019-05-16T07:40:22.333Z,14.57
2019-05-16T07:42:45.111Z,14.27
2019-05-16T07:45:15.609Z,15.20
2019-05-16T07:47:44.985Z,13.63
2019-05-16T07:50:15.808Z,14.13
2019-05-16T07:52:45.122Z,15.40
2019-05-16T07:55:14.998Z,13.67
2019-05-16T07:57:44.365Z,13.63
2019-05-16T08:00:14.850Z,13.80
2019-05-16T08:02:44.274Z,13.97
2019-05-16T08:05:14.033Z,13.57
2019-05-16T08:07:43.414Z,13.73
2019-05-16T08:10:12.946Z,12.90
2019-05-16T08:12:42.315Z,12.73
2019-05-16T08:15:13.258Z,12.30
2019-05-16T08:17:44.588Z,12.53
2019-05-16T08:20:14.153Z,12.77
2019-05-16T08:22:43.446Z,12.67
2019-05-16T08:25:13.649Z,12.40
2019-05-16T08:27:43.019Z,11.87
2019-05-16T08:30:12.893Z,12.23
2019-05-16T08:32:42.498Z,11.50
2019-05-16T08:35:14.156Z,11.80
2019-05-16T08:40:15.959Z,11.20
2019-05-16T08:42:45.337Z,10.57
2019-05-16T08:45:15.487Z,9.67
2019-05-16T08:47:44.854Z,10.07
2019-05-16T08:50:14.905Z,9.40
2019-05-16T08:52:44.818Z,9.40
2019-05-16T08:55:15.055Z,9.50
2019-05-16T08:57:44.414Z,8.97
2019-05-16T09:00:15.382Z,8.57
2019-05-16T09:02:44.764Z,8.10
2019-05-16T09:05:14.821Z,8.27
2019-05-16T09:07:44.162Z,8.80
2019-05-16T09:10:20.963Z,11.03
2019-05-16T09:12:46.919Z,9.10
2019-05-16T09:15:17.137Z,13.93
2019-05-16T09:17:47.596Z,10.57
2019-05-16T09:18:38.365Z,11.13
2019-05-16T09:20:18.026Z,8.10
2019-05-16T09:22:48.124Z,6.77
2019-05-16T09:25:18.671Z,5.93
2019-05-16T09:27:48.808Z,7.23
2019-05-16T09:30:18.808Z,7.57
2019-05-16T09:32:48.256Z,7.03
2019-05-16T09:35:18.125Z,7.00
2019-05-16T09:37:47.668Z,7.03
2019-05-16T09:40:18.455Z,6.73
2019-05-16T09:42:47.796Z,6.63
2019-05-16T09:45:17.908Z,6.73
2019-05-16T09:47:51.187Z,5.77
2019-05-16T09:50:20.382Z,6.50
2019-05-16T09:52:49.714Z,6.97
2019-05-16T09:55:19.437Z,8.73
2019-05-16T09:57:48.814Z,6.93
2019-05-16T10:00:19.861Z,5.60
2019-05-16T10:02:49.659Z,6.23
2019-05-16T10:05:21.018Z,6.10
2019-05-16T10:07:50.462Z,5.63
2019-05-16T10:10:20.457Z,5.33
2019-05-16T10:12:49.841Z,5.10
2019-05-16T10:15:19.682Z,4.47
2019-05-16T10:17:49.450Z,5.00
2019-05-16T10:20:19.294Z,4.53
2019-05-16T10:22:50.671Z,5.00
2019-05-16T10:25:21.180Z,5.33
2019-05-16T10:27:50.541Z,5.73
2019-05-16T10:30:21.209Z,4.67
2019-05-16T10:32:50.601Z,4.10
2019-05-16T10:35:20.395Z,5.10
2019-05-16T10:37:50.847Z,4.00
2019-05-16T10:40:22.344Z,4.70
2019-05-16T10:42:51.723Z,4.60
2019-05-16T10:45:21.441Z,4.30
2019-05-16T10:47:50.810Z,7.50
2019-05-16T10:50:20.085Z,5.53
2019-05-16T10:53:13.316Z,4.43
2019-05-16T10:55:20.629Z,3.60
2019-05-16T10:57:50.870Z,4.90
2019-05-16T11:00:45.934Z,4.43
2019-05-16T11:02:52.846Z,3.97
2019-05-16T11:05:29.870Z,3.70
2019-05-16T11:07:53.620Z,4.20
2019-05-16T11:10:26.890Z,4.10
2019-05-16T11:12:59.032Z,3.87
2019-05-16T11:15:27.799Z,3.50
2019-05-16T11:18:00.083Z,3.43
2019-05-16T11:20:28.450Z,4.33
2019-05-16T11:22:58.424Z,4.73
2019-05-16T11:25:31.749Z,4.40
2019-05-16T11:27:58.795Z,4.60
2019-05-16T11:30:28.675Z,6.63
2019-05-16T11:32:57.990Z,10.07
2019-05-16T11:35:27.464Z,4.70
2019-05-16T11:37:57.378Z,3.83
2019-05-16T11:40:30.103Z,3.10
2019-05-16T11:43:09.279Z,3.60
2019-05-16T11:45:29.238Z,4.80
2019-05-16T11:47:58.517Z,4.40
2019-05-16T11:50:28.152Z,4.40
2019-05-16T11:52:58.007Z,4.20
2019-05-16T11:55:33.938Z,4.10
2019-05-16T11:57:58.369Z,4.53
2019-05-16T12:00:30.477Z,4.60
2019-05-16T12:02:59.145Z,4.93
2019-05-16T12:05:28.461Z,4.10
2019-05-16T12:07:57.745Z,3.87
2019-05-16T12:10:27.179Z,3.37
2019-05-16T12:12:57.054Z,3.60
2019-05-16T12:15:27.406Z,4.33
2019-05-16T12:18:02.069Z,4.70
2019-05-16T12:20:28.458Z,3.97
2019-05-16T12:22:57.942Z,3.70
2019-05-16T12:25:27.448Z,3.80
2019-05-16T12:27:57.362Z,3.60
2019-05-16T12:30:26.640Z,3.50
2019-05-16T12:32:58.105Z,3.70
2019-05-16T12:35:27.698Z,3.30
2019-05-16T12:37:57.737Z,3.63
2019-05-16T12:40:27.070Z,6.17
2019-05-16T12:42:57.300Z,3.87
2019-05-16T12:45:27.661Z,3.90
2019-05-16T12:47:57.660Z,3.77
2019-05-16T12:50:28.951Z,14.00
2019-05-16T12:52:58.379Z,5.37
2019-05-16T12:55:27.653Z,4.43
2019-05-16T12:58:12.213Z,4.37
2019-05-16T13:00:28.732Z,4.40
2019-05-16T13:02:58.059Z,4.73
2019-05-16T13:05:27.442Z,4.23
2019-05-16T13:07:56.729Z,4.23
2019-05-16T13:10:26.985Z,4.10
2019-05-16T13:12:58.023Z,4.20
2019-05-16T13:15:28.053Z,3.60
2019-05-16T13:17:57.407Z,3.83
2019-05-16T13:20:26.825Z,4.77
2019-05-16T13:22:56.887Z,3.80
2019-05-16T13:25:27.310Z,4.30
2019-05-16T13:27:57.861Z,4.07
2019-05-16T13:30:27.929Z,4.33
2019-05-16T13:32:57.263Z,4.40
2019-05-16T13:35:27.058Z,4.10
2019-05-16T13:37:57.948Z,4.07
2019-05-16T13:40:28.169Z,4.47
2019-05-16T13:42:57.529Z,3.77
2019-05-16T13:45:27.342Z,3.97
2019-05-16T13:47:57.473Z,4.60
2019-05-16T13:50:27.357Z,4.23
2019-05-16T13:52:58.343Z,4.13
2019-05-16T13:55:28.429Z,5.13
2019-05-16T13:57:57.724Z,4.30
2019-05-16T14:00:28.075Z,4.00
2019-05-16T14:02:58.025Z,4.13
2019-05-16T14:05:27.374Z,3.93
2019-05-16T14:07:57.207Z,4.13
2019-05-16T14:10:29.681Z,4.37
2019-05-16T14:12:58.383Z,3.90
2019-05-16T14:15:27.718Z,4.27
2019-05-16T14:17:57.085Z,4.10
2019-05-16T14:20:26.408Z,4.73
2019-05-16T14:22:57.319Z,3.90
2019-05-16T14:25:26.787Z,3.70
2019-05-16T14:27:56.795Z,3.30
2019-05-16T14:30:28.524Z,6.53
2019-05-16T14:33:01.052Z,4.20
2019-05-16T14:35:29.152Z,4.77
2019-05-16T14:38:00.905Z,4.07
2019-05-16T14:40:29.529Z,3.50
2019-05-16T14:42:58.961Z,3.90
2019-05-16T14:45:28.247Z,3.57
2019-05-16T14:47:58.045Z,3.23
2019-05-16T14:50:28.013Z,3.80
2019-05-16T14:52:57.299Z,5.33
2019-05-16T14:55:27.374Z,3.77
2019-05-16T14:57:57.501Z,4.30
2019-05-16T15:00:27.649Z,3.90
2019-05-16T15:02:57.729Z,3.90
2019-05-16T15:05:27.085Z,3.97
2019-05-16T15:07:56.917Z,3.63
2019-05-16T15:10:27.031Z,3.80
2019-05-16T15:12:57.007Z,3.70
2019-05-16T15:15:28.063Z,3.77
2019-05-16T15:17:57.943Z,3.90
2019-05-16T15:20:28.050Z,4.53
2019-05-16T15:22:58.065Z,3.73
2019-05-16T15:25:27.348Z,4.00
2019-05-16T15:27:57.591Z,4.20
2019-05-16T15:30:27.765Z,4.00
2019-05-16T15:32:57.085Z,3.70
2019-05-16T15:35:27.307Z,3.33
2019-05-16T15:37:59.055Z,3.43
2019-05-16T15:40:28.531Z,2.80
2019-05-16T15:42:59.084Z,2.60
2019-05-16T15:45:43.105Z,4.70
2019-05-16T15:48:09.328Z,2.93
2019-05-16T15:50:38.922Z,2.83
2019-05-16T15:53:08.942Z,2.87
2019-05-16T15:55:38.771Z,2.70
2019-05-16T15:58:10.488Z,2.53
2019-05-16T16:00:41.815Z,2.53
2019-05-16T16:03:11.162Z,3.03
2019-05-16T16:05:42.848Z,2.63
2019-05-16T16:08:12.190Z,2.80
2019-05-16T16:10:47.522Z,2.57
2019-05-16T16:13:19.449Z,2.33
2019-05-16T16:15:53.293Z,3.13
2019-05-16T16:18:21.418Z,3.03
2019-05-16T16:20:48.617Z,3.13
2019-05-16T16:23:17.987Z,2.50
2019-05-16T16:25:50.504Z,3.00
2019-05-16T16:28:18.967Z,2.60
2019-05-16T16:30:48.262Z,2.87
2019-05-16T16:33:25.543Z,2.90
2019-05-16T16:35:49.094Z,2.70
2019-05-16T16:38:18.489Z,2.90
2019-05-16T16:40:48.121Z,2.80
2019-05-16T16:43:18.586Z,3.10
2019-05-16T16:45:48.245Z,3.37
2019-05-16T16:48:17.619Z,2.83
2019-05-16T16:50:47.614Z,3.10
2019-05-16T16:53:17.621Z,2.80
2019-05-16T16:55:49.059Z,3.17
2019-05-16T16:58:18.387Z,3.27
2019-05-16T17:00:48.010Z,2.97
2019-05-16T17:03:17.303Z,3.20
2019-05-16T17:05:46.830Z,2.93
2019-05-16T17:08:16.872Z,3.00
2019-05-16T17:10:47.661Z,3.07
2019-05-16T17:13:18.155Z,3.43
2019-05-16T17:15:47.713Z,3.27
2019-05-16T17:18:17.654Z,3.00
2019-05-16T17:20:47.935Z,3.23
2019-05-16T17:23:17.459Z,3.57
2019-05-16T17:25:47.483Z,3.60
2019-05-16T17:28:17.599Z,3.63
2019-05-16T17:30:48.777Z,3.30
2019-05-16T17:33:18.528Z,3.33
2019-05-16T17:35:49.110Z,3.23
2019-05-16T17:38:19.109Z,3.43
2019-05-16T17:40:48.508Z,3.37
2019-05-16T17:43:17.847Z,4.23
2019-05-16T17:45:47.292Z,3.63
2019-05-16T17:48:17.805Z,4.47
2019-05-16T17:50:47.933Z,3.90
2019-05-16T17:53:17.876Z,4.37
2019-05-16T17:55:47.524Z,4.23
2019-05-16T17:58:16.912Z,3.80
2019-05-16T18:00:47.159Z,4.00
2019-05-16T18:03:17.630Z,3.50
2019-05-16T18:05:47.780Z,4.10
2019-05-16T18:08:18.749Z,6.10
2019-05-16T18:10:48.137Z,7.10
2019-05-16T18:13:17.541Z,8.03
2019-05-16T18:15:47.417Z,11.50
2019-05-16T18:18:17.862Z,6.20
2019-05-16T18:20:55.747Z,10.07
2019-05-16T18:23:18.881Z,9.70
2019-05-16T18:25:48.249Z,12.60
2019-05-16T18:28:17.795Z,6.53
2019-05-16T18:30:47.787Z,5.47
2019-05-16T18:33:17.187Z,5.50
2019-05-16T18:35:46.865Z,6.03
2019-05-16T18:38:16.272Z,5.83
2019-05-16T18:40:47.376Z,5.83
2019-05-16T18:43:16.767Z,7.00
2019-05-16T18:45:47.244Z,6.40
2019-05-16T18:48:17.394Z,5.77
2019-05-16T18:50:47.737Z,6.17
2019-05-16T18:53:17.964Z,5.83
2019-05-16T18:55:47.957Z,6.60
2019-05-16T18:58:18.136Z,7.03
2019-05-16T19:00:48.226Z,8.53
2019-05-16T19:03:17.923Z,9.57
2019-05-16T19:05:47.458Z,8.63
2019-05-16T19:08:16.872Z,7.60
2019-05-16T19:10:47.324Z,6.73
2019-05-16T19:13:17.632Z,6.67
2019-05-16T19:15:49.340Z,6.40
2019-05-16T19:18:18.376Z,6.33
2019-05-16T19:20:48.934Z,6.30
2019-05-16T19:23:19.113Z,6.80
2019-05-16T19:25:48.558Z,7.83
2019-05-16T19:28:18.099Z,8.90
2019-05-16T19:30:48.032Z,9.90
2019-05-16T19:33:17.655Z,8.03
2019-05-16T19:35:49.072Z,7.00
2019-05-16T19:38:18.705Z,7.30
2019-05-16T19:40:48.070Z,6.97
2019-05-16T19:43:17.587Z,7.20
2019-05-16T19:45:47.538Z,6.67
2019-05-16T19:48:17.455Z,6.53
2019-05-16T19:50:47.525Z,6.67
2019-05-16T19:53:17.010Z,6.97
2019-05-16T19:55:47.038Z,6.90
2019-05-16T19:58:17.246Z,6.57
2019-05-16T20:00:46.691Z,7.17
2019-05-16T20:03:16.818Z,7.33
2019-05-16T20:05:47.705Z,7.33
2019-05-16T20:08:17.766Z,7.17
2019-05-16T20:10:47.689Z,6.83
2019-05-16T20:13:17.690Z,17.03
2019-05-16T20:15:47.207Z,13.07
2019-05-16T20:18:18.551Z,9.03
2019-05-16T20:20:48.507Z,7.73
2019-05-16T20:23:18.652Z,8.17
2019-05-16T20:25:48.742Z,7.53
2019-05-16T20:28:18.593Z,7.33
2019-05-16T20:30:48.528Z,7.40
2019-05-16T20:33:18.198Z,7.67
2019-05-16T20:35:48.589Z,8.97
2019-05-16T20:38:17.973Z,7.70
2019-05-16T20:40:47.338Z,7.90
2019-05-16T20:43:16.977Z,8.53
2019-05-16T20:45:47.665Z,8.63
2019-05-16T20:48:18.625Z,8.23
2019-05-16T20:50:49.171Z,7.67
2019-05-16T20:53:19.313Z,7.60
2019-05-16T20:55:49.632Z,7.40
2019-05-16T20:58:19.689Z,7.23
2019-05-16T21:00:49.815Z,7.80
2019-05-16T21:03:20.248Z,7.10
2019-05-16T21:05:49.660Z,6.93
2019-05-16T21:08:19.008Z,7.13
2019-05-16T21:10:48.286Z,6.87
2019-05-16T21:13:17.611Z,7.03
2019-05-16T21:15:47.667Z,7.33
2019-05-16T21:18:17.685Z,7.63
2019-05-16T21:20:47.166Z,7.93
2019-05-16T21:23:19.568Z,7.37
2019-05-16T21:25:48.188Z,7.33
2019-05-16T21:28:19.768Z,7.50
2019-05-16T21:30:48.535Z,7.67
2019-05-16T21:33:18.691Z,7.60
2019-05-16T21:35:48.745Z,7.47
2019-05-16T21:38:18.162Z,7.70
2019-05-16T21:40:47.443Z,7.77
2019-05-16T21:43:16.930Z,7.63
2019-05-16T21:45:47.425Z,7.30
2019-05-16T21:48:19.360Z,7.83
2019-05-16T21:50:48.410Z,7.40
2019-05-16T21:53:17.842Z,8.37
2019-05-16T21:55:47.717Z,7.27
2019-05-16T21:58:16.998Z,7.20
2019-05-16T22:00:49.045Z,7.10
2019-05-16T22:03:18.448Z,7.77
2019-05-16T22:05:47.871Z,7.17
2019-05-16T22:08:17.230Z,6.80
2019-05-16T22:10:46.947Z,6.40
2019-05-16T22:13:16.328Z,7.03
2019-05-16T22:15:46.357Z,7.27
2019-05-16T22:18:16.747Z,6.57
2019-05-16T22:20:49.280Z,7.37
2019-05-16T22:23:18.157Z,7.33
2019-05-16T22:25:49.313Z,7.47
2019-05-16T22:28:18.485Z,7.43
2019-05-16T22:30:48.360Z,7.83
2019-05-16T22:33:17.979Z,7.67
2019-05-16T22:35:49.626Z,8.40
2019-05-16T22:38:19.605Z,7.67
2019-05-16T22:40:48.937Z,8.30
2019-05-16T22:43:18.226Z,8.57
2019-05-16T22:45:47.562Z,8.30
2019-05-16T22:48:17.436Z,8.90
2019-05-16T22:50:47.381Z,7.97
2019-05-16T22:53:17.193Z,9.33
2019-05-16T22:55:47.793Z,8.80
2019-05-16T22:58:17.753Z,9.20
2019-05-16T23:00:47.773Z,9.50
2019-05-16T23:03:17.488Z,10.23
2019-05-16T23:05:47.568Z,9.73
2019-05-16T23:08:16.925Z,10.00
2019-05-16T23:10:46.209Z,9.77
2019-05-16T23:13:16.965Z,9.10
2019-05-16T23:15:46.593Z,10.00
2019-05-16T23:18:17.239Z,9.23
2019-05-16T23:20:47.393Z,8.17
2019-05-16T23:23:17.571Z,8.70
2019-05-16T23:25:47.396Z,8.73
2019-05-16T23:28:16.878Z,8.40
2019-05-16T23:30:47.082Z,8.53
2019-05-16T23:33:17.052Z,9.00
2019-05-16T23:35:46.868Z,9.90
2019-05-16T23:38:19.926Z,9.17
2019-05-16T23:40:47.948Z,9.60
2019-05-16T23:43:17.319Z,9.90
2019-05-16T23:45:46.998Z,9.17
2019-05-16T23:48:16.882Z,10.43
2019-05-16T23:50:47.495Z,9.07
2019-05-16T23:53:18.252Z,8.80
2019-05-16T23:55:47.608Z,9.37
2019-05-16T23:58:17.020Z,10.37
